sensor_id;sensor_type;location;lat;lon;timestamp;pressure;altitude;pressure_sealevel;temperature;humidity
41040;BME280;48586;50.122;18.972;2023-11-21T00:02:48;97786.09;;;5.20;71.51
41040;BME280;48586;50.122;18.972;2023-11-21T00:05:58;97786.34;;;5.17;71.64
41040;BME280;48586;50.122;18.972;2023-11-21T00:09:04;97781.88;;;5.17;71.70
41040;BME280;48586;50.122;18.972;2023-11-21T00:12:10;97780.72;;;5.10;71.73
41040;BME280;48586;50.122;18.972;2023-11-21T00:15:17;97783.31;;;5.21;71.91
41040;BME280;48586;50.122;18.972;2023-11-21T00:18:26;97786.84;;;5.22;71.75
41040;BME280;48586;50.122;18.972;2023-11-21T00:21:34;97793.94;;;5.21;71.56
41040;BME280;48586;50.122;18.972;2023-11-21T00:24:42;97803.13;;;5.17;71.59
41040;BME280;48586;50.122;18.972;2023-11-21T00:27:48;97803.97;;;5.18;72.01
41040;BME280;48586;50.122;18.972;2023-11-21T00:30:55;97798.66;;;5.18;71.78
41040;BME280;48586;50.122;18.972;2023-11-21T00:34:02;97802.16;;;5.18;71.60
41040;BME280;48586;50.122;18.972;2023-11-21T00:37:13;97798.38;;;5.21;71.65
41040;BME280;48586;50.122;18.972;2023-11-21T00:40:19;97808.66;;;5.25;71.30
41040;BME280;48586;50.122;18.972;2023-11-21T00:43:25;97802.63;;;5.23;70.71
41040;BME280;48586;50.122;18.972;2023-11-21T00:46:29;97794.19;;;5.18;70.69
41040;BME280;48586;50.122;18.972;2023-11-21T00:49:35;97801.31;;;5.18;70.70
41040;BME280;48586;50.122;18.972;2023-11-21T00:52:43;97800.88;;;5.12;70.41
41040;BME280;48586;50.122;18.972;2023-11-21T00:55:49;97805.47;;;5.10;70.57
41040;BME280;48586;50.122;18.972;2023-11-21T00:58:59;97801.00;;;5.11;70.83
41040;BME280;48586;50.122;18.972;2023-11-21T01:02:06;97798.88;;;5.05;70.74
41040;BME280;48586;50.122;18.972;2023-11-21T01:05:11;97793.84;;;5.02;70.77
41040;BME280;48586;50.122;18.972;2023-11-21T01:08:19;97790.59;;;4.98;70.64
41040;BME280;48586;50.122;18.972;2023-11-21T01:11:25;97796.56;;;4.91;70.65
41040;BME280;48586;50.122;18.972;2023-11-21T01:14:31;97792.34;;;4.88;70.73
41040;BME280;48586;50.122;18.972;2023-11-21T01:17:36;97794.69;;;4.81;70.57
41040;BME280;48586;50.122;18.972;2023-11-21T01:20:43;97788.78;;;4.78;70.78
41040;BME280;48586;50.122;18.972;2023-11-21T01:23:50;97799.66;;;4.75;70.66
41040;BME280;48586;50.122;18.972;2023-11-21T01:26:56;97802.59;;;4.72;70.96
41040;BME280;48586;50.122;18.972;2023-11-21T01:30:02;97815.84;;;4.72;70.71
41040;BME280;48586;50.122;18.972;2023-11-21T01:33:10;97808.72;;;4.72;70.96
41040;BME280;48586;50.122;18.972;2023-11-21T01:36:17;97811.97;;;4.76;70.81
41040;BME280;48586;50.122;18.972;2023-11-21T01:39:26;97818.94;;;4.77;70.77
41040;BME280;48586;50.122;18.972;2023-11-21T01:42:33;97825.94;;;4.78;70.80
41040;BME280;48586;50.122;18.972;2023-11-21T01:45:40;97819.06;;;4.75;70.88
41040;BME280;48586;50.122;18.972;2023-11-21T01:48:47;97822.31;;;4.79;70.82
41040;BME280;48586;50.122;18.972;2023-11-21T01:51:55;97817.13;;;4.77;70.71
41040;BME280;48586;50.122;18.972;2023-11-21T01:55:05;97821.03;;;4.73;70.30
41040;BME280;48586;50.122;18.972;2023-11-21T01:58:14;97819.34;;;4.72;70.35
41040;BME280;48586;50.122;18.972;2023-11-21T02:01:21;97816.81;;;4.71;70.42
41040;BME280;48586;50.122;18.972;2023-11-21T02:04:29;97816.13;;;4.69;70.53
41040;BME280;48586;50.122;18.972;2023-11-21T02:07:35;97815.84;;;4.72;70.64
41040;BME280;48586;50.122;18.972;2023-11-21T02:10:44;97814.88;;;4.73;70.77
41040;BME280;48586;50.122;18.972;2023-11-21T02:13:49;97814.75;;;4.74;70.83
41040;BME280;48586;50.122;18.972;2023-11-21T02:16:57;97803.44;;;4.72;70.71
41040;BME280;48586;50.122;18.972;2023-11-21T02:20:03;97809.78;;;4.81;70.54
41040;BME280;48586;50.122;18.972;2023-11-21T02:26:53;97809.50;;;4.84;68.74
41040;BME280;48586;50.122;18.972;2023-11-21T02:29:59;97819.41;;;4.82;68.31
41040;BME280;48586;50.122;18.972;2023-11-21T02:33:06;97814.81;;;4.84;68.47
41040;BME280;48586;50.122;18.972;2023-11-21T02:36:13;97805.69;;;4.77;67.79
41040;BME280;48586;50.122;18.972;2023-11-21T02:39:19;97815.59;;;4.75;67.92
41040;BME280;48586;50.122;18.972;2023-11-21T02:42:30;97819.47;;;4.71;67.97
41040;BME280;48586;50.122;18.972;2023-11-21T02:45:37;97822.19;;;4.60;67.88
41040;BME280;48586;50.122;18.972;2023-11-21T02:48:44;97833.50;;;4.62;67.75
41040;BME280;48586;50.122;18.972;2023-11-21T02:51:49;97840.75;;;4.60;67.91
41040;BME280;48586;50.122;18.972;2023-11-21T02:54:57;97836.16;;;4.62;67.92
41040;BME280;48586;50.122;18.972;2023-11-21T02:58:04;97834.47;;;4.61;67.84
41040;BME280;48586;50.122;18.972;2023-11-21T03:01:10;97841.06;;;4.66;68.10
41040;BME280;48586;50.122;18.972;2023-11-21T03:04:16;97850.97;;;4.64;68.13
41040;BME280;48586;50.122;18.972;2023-11-21T03:07:24;97842.44;;;4.61;69.24
41040;BME280;48586;50.122;18.972;2023-11-21T03:10:29;97854.25;;;4.56;68.45
41040;BME280;48586;50.122;18.972;2023-11-21T03:13:38;97851.72;;;4.55;68.65
41040;BME280;48586;50.122;18.972;2023-11-21T03:16:44;97842.09;;;4.54;69.32
41040;BME280;48586;50.122;18.972;2023-11-21T03:19:50;97837.88;;;4.51;68.85
41040;BME280;48586;50.122;18.972;2023-11-21T03:22:57;97844.88;;;4.52;69.29
41040;BME280;48586;50.122;18.972;2023-11-21T03:26:04;97840.94;;;4.47;69.19
41040;BME280;48586;50.122;18.972;2023-11-21T03:29:14;97845.41;;;4.46;69.35
41040;BME280;48586;50.122;18.972;2023-11-21T03:32:20;97842.75;;;4.46;69.33
41040;BME280;48586;50.122;18.972;2023-11-21T03:35:26;97842.84;;;4.45;69.56
41040;BME280;48586;50.122;18.972;2023-11-21T03:38:32;97847.31;;;4.44;69.64
41040;BME280;48586;50.122;18.972;2023-11-21T03:41:38;97853.56;;;4.43;69.70
41040;BME280;48586;50.122;18.972;2023-11-21T03:44:48;97845.75;;;4.42;70.54
41040;BME280;48586;50.122;18.972;2023-11-21T03:47:53;97852.59;;;4.44;70.40
41040;BME280;48586;50.122;18.972;2023-11-21T03:50:59;97841.78;;;4.47;70.54
41040;BME280;48586;50.122;18.972;2023-11-21T03:54:04;97837.66;;;4.43;70.67
41040;BME280;48586;50.122;18.972;2023-11-21T03:57:10;97841.44;;;4.41;70.91
41040;BME280;48586;50.122;18.972;2023-11-21T04:00:21;97845.88;;;4.40;70.74
41040;BME280;48586;50.122;18.972;2023-11-21T04:03:29;97847.22;;;4.35;70.72
41040;BME280;48586;50.122;18.972;2023-11-21T04:06:33;97840.38;;;4.32;70.67
41040;BME280;48586;50.122;18.972;2023-11-21T04:09:40;97844.13;;;4.30;70.65
41040;BME280;48586;50.122;18.972;2023-11-21T04:12:46;97851.22;;;4.29;70.49
41040;BME280;48586;50.122;18.972;2023-11-21T04:15:54;97845.78;;;4.31;70.79
41040;BME280;48586;50.122;18.972;2023-11-21T04:19:00;97855.31;;;4.33;70.64
41040;BME280;48586;50.122;18.972;2023-11-21T04:22:06;97847.47;;;4.32;70.81
41040;BME280;48586;50.122;18.972;2023-11-21T04:25:14;97848.66;;;4.39;70.41
41040;BME280;48586;50.122;18.972;2023-11-21T04:28:20;97847.31;;;4.44;70.43
41040;BME280;48586;50.122;18.972;2023-11-21T04:31:29;97845.13;;;4.49;70.00
41040;BME280;48586;50.122;18.972;2023-11-21T04:34:35;97858.13;;;4.52;70.14
41040;BME280;48586;50.122;18.972;2023-11-21T04:37:40;97853.78;;;4.51;69.59
41040;BME280;48586;50.122;18.972;2023-11-21T04:40:47;97859.94;;;4.52;69.67
41040;BME280;48586;50.122;18.972;2023-11-21T04:43:52;97861.03;;;4.49;69.85
41040;BME280;48586;50.122;18.972;2023-11-21T04:47:00;97861.16;;;4.48;69.93
41040;BME280;48586;50.122;18.972;2023-11-21T04:50:07;97875.41;;;4.47;69.58
41040;BME280;48586;50.122;18.972;2023-11-21T04:53:13;97880.78;;;4.45;69.94
41040;BME280;48586;50.122;18.972;2023-11-21T04:56:19;97874.47;;;4.37;70.07
41040;BME280;48586;50.122;18.972;2023-11-21T04:59:26;97887.22;;;4.32;69.94
41040;BME280;48586;50.122;18.972;2023-11-21T05:02:33;97884.00;;;4.28;70.46
41040;BME280;48586;50.122;18.972;2023-11-21T05:05:41;97888.69;;;4.24;70.23
41040;BME280;48586;50.122;18.972;2023-11-21T05:08:47;97889.19;;;4.18;70.57
41040;BME280;48586;50.122;18.972;2023-11-21T05:11:54;97890.16;;;4.17;70.73
41040;BME280;48586;50.122;18.972;2023-11-21T05:14:59;97889.56;;;4.14;70.57
41040;BME280;48586;50.122;18.972;2023-11-21T05:18:09;97895.13;;;4.11;70.60
41040;BME280;48586;50.122;18.972;2023-11-21T05:21:16;97906.09;;;4.06;70.78
41040;BME280;48586;50.122;18.972;2023-11-21T05:24:23;97908.88;;;4.05;70.84
41040;BME280;48586;50.122;18.972;2023-11-21T05:27:30;97909.47;;;4.08;70.89
41040;BME280;48586;50.122;18.972;2023-11-21T05:30:36;97916.31;;;4.11;70.80
41040;BME280;48586;50.122;18.972;2023-11-21T05:33:45;97904.75;;;4.12;70.90
41040;BME280;48586;50.122;18.972;2023-11-21T05:36:50;97902.34;;;4.09;70.50
41040;BME280;48586;50.122;18.972;2023-11-21T05:39:55;97905.59;;;4.12;70.60
41040;BME280;48586;50.122;18.972;2023-11-21T05:43:01;97909.06;;;4.13;70.62
41040;BME280;48586;50.122;18.972;2023-11-21T05:46:06;97922.69;;;4.19;70.57
41040;BME280;48586;50.122;18.972;2023-11-21T05:49:14;97917.13;;;4.22;70.67
41040;BME280;48586;50.122;18.972;2023-11-21T05:52:21;97913.50;;;4.23;70.30
41040;BME280;48586;50.122;18.972;2023-11-21T05:55:26;97910.41;;;4.18;70.02
41040;BME280;48586;50.122;18.972;2023-11-21T05:58:32;97914.72;;;4.19;70.44
41040;BME280;48586;50.122;18.972;2023-11-21T06:01:38;97915.84;;;4.17;70.35
41040;BME280;48586;50.122;18.972;2023-11-21T06:04:46;97927.41;;;4.16;70.29
41040;BME280;48586;50.122;18.972;2023-11-21T06:07:54;97933.66;;;4.15;70.31
41040;BME280;48586;50.122;18.972;2023-11-21T06:11:00;97929.56;;;4.11;70.33
41040;BME280;48586;50.122;18.972;2023-11-21T06:14:07;97930.91;;;4.05;70.33
41040;BME280;48586;50.122;18.972;2023-11-21T06:17:13;97929.44;;;4.01;70.61
41040;BME280;48586;50.122;18.972;2023-11-21T06:20:22;97940.41;;;3.96;70.66
41040;BME280;48586;50.122;18.972;2023-11-21T06:23:28;97942.22;;;3.96;70.91
41040;BME280;48586;50.122;18.972;2023-11-21T06:26:34;97950.28;;;3.94;70.55
41040;BME280;48586;50.122;18.972;2023-11-21T06:29:40;97952.94;;;3.94;70.87
41040;BME280;48586;50.122;18.972;2023-11-21T06:32:48;97950.50;;;3.91;71.02
41040;BME280;48586;50.122;18.972;2023-11-21T06:35:57;97951.13;;;3.95;71.01
41040;BME280;48586;50.122;18.972;2023-11-21T06:39:06;97952.69;;;3.97;70.87
41040;BME280;48586;50.122;18.972;2023-11-21T06:42:12;97954.38;;;3.98;70.83
41040;BME280;48586;50.122;18.972;2023-11-21T06:45:18;97952.56;;;3.99;70.58
41040;BME280;48586;50.122;18.972;2023-11-21T06:48:23;97964.00;;;3.99;70.57
41040;BME280;48586;50.122;18.972;2023-11-21T06:51:32;97957.63;;;4.02;70.58
41040;BME280;48586;50.122;18.972;2023-11-21T06:54:38;97954.97;;;4.02;70.52
41040;BME280;48586;50.122;18.972;2023-11-21T06:57:43;97963.03;;;4.01;70.41
41040;BME280;48586;50.122;18.972;2023-11-21T07:00:49;97960.50;;;3.99;70.78
41040;BME280;48586;50.122;18.972;2023-11-21T07:03:56;97965.81;;;3.99;70.71
41040;BME280;48586;50.122;18.972;2023-11-21T07:07:05;97957.75;;;4.01;70.53
41040;BME280;48586;50.122;18.972;2023-11-21T07:10:12;97959.91;;;4.07;70.35
41040;BME280;48586;50.122;18.972;2023-11-21T07:13:16;97961.59;;;4.08;70.41
41040;BME280;48586;50.122;18.972;2023-11-21T07:16:23;97966.31;;;4.04;70.38
41040;BME280;48586;50.122;18.972;2023-11-21T07:19:28;97973.16;;;4.07;70.37
41040;BME280;48586;50.122;18.972;2023-11-21T07:22:37;97969.28;;;4.11;70.46
41040;BME280;48586;50.122;18.972;2023-11-21T07:25:43;97969.41;;;4.09;70.63
41040;BME280;48586;50.122;18.972;2023-11-21T07:28:50;97977.25;;;4.11;70.89
41040;BME280;48586;50.122;18.972;2023-11-21T07:31:56;97974.00;;;4.18;70.63
41040;BME280;48586;50.122;18.972;2023-11-21T07:35:03;97976.53;;;4.20;70.52
41040;BME280;48586;50.122;18.972;2023-11-21T07:38:13;97976.53;;;4.20;70.61
41040;BME280;48586;50.122;18.972;2023-11-21T07:41:19;97985.81;;;4.25;70.31
41040;BME280;48586;50.122;18.972;2023-11-21T07:44:25;97980.38;;;4.27;70.07
41040;BME280;48586;50.122;18.972;2023-11-21T07:47:31;97986.97;;;4.33;70.38
41040;BME280;48586;50.122;18.972;2023-11-21T07:50:37;97989.03;;;4.40;70.12
41040;BME280;48586;50.122;18.972;2023-11-21T07:53:45;97991.91;;;4.48;69.78
41040;BME280;48586;50.122;18.972;2023-11-21T07:56:51;97979.72;;;4.57;69.65
41040;BME280;48586;50.122;18.972;2023-11-21T07:59:58;97990.06;;;4.60;69.05
41040;BME280;48586;50.122;18.972;2023-11-21T08:03:14;97994.28;;;4.63;68.83
41040;BME280;48586;50.122;18.972;2023-11-21T08:06:21;97991.84;;;4.71;69.20
41040;BME280;48586;50.122;18.972;2023-11-21T08:09:31;97990.75;;;4.73;68.78
41040;BME280;48586;50.122;18.972;2023-11-21T08:12:44;97990.28;;;4.79;68.68
41040;BME280;48586;50.122;18.972;2023-11-21T08:15:49;97996.88;;;4.85;68.74
41040;BME280;48586;50.122;18.972;2023-11-21T08:18:56;98002.16;;;4.85;68.19
41040;BME280;48586;50.122;18.972;2023-11-21T08:22:02;97999.38;;;4.86;68.36
41040;BME280;48586;50.122;18.972;2023-11-21T08:25:13;98003.72;;;4.88;68.15
41040;BME280;48586;50.122;18.972;2023-11-21T08:28:21;98005.53;;;4.87;68.09
41040;BME280;48586;50.122;18.972;2023-11-21T08:31:29;98000.00;;;4.90;67.75
41040;BME280;48586;50.122;18.972;2023-11-21T08:34:34;98006.03;;;4.92;68.26
41040;BME280;48586;50.122;18.972;2023-11-21T08:37:41;98003.09;;;4.95;68.06
41040;BME280;48586;50.122;18.972;2023-11-21T08:40:49;98009.13;;;4.97;68.03
41040;BME280;48586;50.122;18.972;2023-11-21T08:43:55;98006.09;;;5.02;67.33
41040;BME280;48586;50.122;18.972;2023-11-21T08:46:59;98015.75;;;5.03;67.25
41040;BME280;48586;50.122;18.972;2023-11-21T08:50:08;98016.31;;;5.06;67.29
41040;BME280;48586;50.122;18.972;2023-11-21T08:53:14;98025.97;;;5.07;66.84
41040;BME280;48586;50.122;18.972;2023-11-21T08:56:23;98027.66;;;5.08;66.56
41040;BME280;48586;50.122;18.972;2023-11-21T08:59:28;98033.69;;;5.10;66.73
41040;BME280;48586;50.122;18.972;2023-11-21T09:02:35;98031.38;;;5.17;66.72
41040;BME280;48586;50.122;18.972;2023-11-21T09:05:43;98037.25;;;5.32;67.04
41040;BME280;48586;50.122;18.972;2023-11-21T09:08:48;98039.88;;;5.43;66.18
41040;BME280;48586;50.122;18.972;2023-11-21T09:11:56;98026.47;;;5.45;65.92
41040;BME280;48586;50.122;18.972;2023-11-21T09:15:08;98033.19;;;5.49;65.47
41040;BME280;48586;50.122;18.972;2023-11-21T09:18:14;98021.09;;;5.56;66.33
41040;BME280;48586;50.122;18.972;2023-11-21T09:21:21;98029.25;;;5.64;64.79
41040;BME280;48586;50.122;18.972;2023-11-21T09:24:28;98022.22;;;5.63;64.59
41040;BME280;48586;50.122;18.972;2023-11-21T09:27:37;98026.34;;;5.67;64.54
41040;BME280;48586;50.122;18.972;2023-11-21T09:30:42;98024.78;;;5.64;63.63
41040;BME280;48586;50.122;18.972;2023-11-21T09:33:49;98022.50;;;5.60;64.08
41040;BME280;48586;50.122;18.972;2023-11-21T09:36:56;98019.84;;;5.60;64.38
41040;BME280;48586;50.122;18.972;2023-11-21T09:40:10;98020.44;;;5.63;64.36
41040;BME280;48586;50.122;18.972;2023-11-21T09:43:21;98017.66;;;5.65;64.37
41040;BME280;48586;50.122;18.972;2023-11-21T09:46:30;98019.19;;;5.67;63.55
41040;BME280;48586;50.122;18.972;2023-11-21T09:49:37;98024.25;;;5.70;64.19
41040;BME280;48586;50.122;18.972;2023-11-21T09:52:54;98015.72;;;5.67;64.16
41040;BME280;48586;50.122;18.972;2023-11-21T09:56:02;98021.38;;;5.62;61.79
41040;BME280;48586;50.122;18.972;2023-11-21T09:59:15;98021.59;;;5.70;63.52
41040;BME280;48586;50.122;18.972;2023-11-21T10:02:25;98021.31;;;5.73;63.23
41040;BME280;48586;50.122;18.972;2023-11-21T10:05:34;98011.16;;;5.79;62.32
41040;BME280;48586;50.122;18.972;2023-11-21T10:08:40;98013.41;;;5.83;62.81
41040;BME280;48586;50.122;18.972;2023-11-21T10:11:47;98024.38;;;5.90;62.86
41040;BME280;48586;50.122;18.972;2023-11-21T10:14:58;98029.41;;;5.93;62.59
41040;BME280;48586;50.122;18.972;2023-11-21T10:18:08;98025.53;;;5.97;61.96
41040;BME280;48586;50.122;18.972;2023-11-21T10:21:14;98028.34;;;6.05;61.58
41040;BME280;48586;50.122;18.972;2023-11-21T10:24:20;98014.34;;;6.03;60.35
41040;BME280;48586;50.122;18.972;2023-11-21T10:27:27;98007.94;;;6.06;59.69
41040;BME280;48586;50.122;18.972;2023-11-21T10:30:37;98018.00;;;6.02;59.91
41040;BME280;48586;50.122;18.972;2023-11-21T10:33:43;98016.59;;;5.98;59.66
41040;BME280;48586;50.122;18.972;2023-11-21T10:36:49;98015.59;;;5.99;60.41
41040;BME280;48586;50.122;18.972;2023-11-21T10:39:58;98003.69;;;5.93;61.23
41040;BME280;48586;50.122;18.972;2023-11-21T10:43:07;98013.59;;;5.91;61.37
41040;BME280;48586;50.122;18.972;2023-11-21T10:46:17;98018.84;;;5.82;61.46
41040;BME280;48586;50.122;18.972;2023-11-21T10:49:27;98014.88;;;5.66;61.10
41040;BME280;48586;50.122;18.972;2023-11-21T10:52:33;98013.44;;;5.62;61.78
41040;BME280;48586;50.122;18.972;2023-11-21T10:55:40;98017.31;;;5.58;61.38
41040;BME280;48586;50.122;18.972;2023-11-21T10:58:49;98012.41;;;5.54;61.16
41040;BME280;48586;50.122;18.972;2023-11-21T11:02:04;98020.03;;;5.47;61.79
41040;BME280;48586;50.122;18.972;2023-11-21T11:05:29;98009.91;;;5.41;62.17
41040;BME280;48586;50.122;18.972;2023-11-21T11:08:35;98020.63;;;5.51;62.67
41040;BME280;48586;50.122;18.972;2023-11-21T11:11:41;98020.03;;;5.47;62.02
41040;BME280;48586;50.122;18.972;2023-11-21T11:14:48;98022.13;;;5.43;62.37
41040;BME280;48586;50.122;18.972;2023-11-21T11:17:56;98022.50;;;5.39;61.91
41040;BME280;48586;50.122;18.972;2023-11-21T11:21:13;98025.00;;;5.40;62.16
41040;BME280;48586;50.122;18.972;2023-11-21T11:24:50;98029.69;;;5.48;62.31
41040;BME280;48586;50.122;18.972;2023-11-21T11:28:21;98033.25;;;5.58;63.05
41040;BME280;48586;50.122;18.972;2023-11-21T11:31:58;98016.41;;;5.69;62.36
41040;BME280;48586;50.122;18.972;2023-11-21T11:35:22;98019.19;;;5.67;61.20
41040;BME280;48586;50.122;18.972;2023-11-21T11:38:35;98023.28;;;5.71;61.36
41040;BME280;48586;50.122;18.972;2023-11-21T11:41:44;98019.91;;;5.69;60.69
41040;BME280;48586;50.122;18.972;2023-11-21T11:44:52;98006.84;;;5.57;60.34
41040;BME280;48586;50.122;18.972;2023-11-21T11:48:01;98029.34;;;5.62;60.43
41040;BME280;48586;50.122;18.972;2023-11-21T11:51:15;98025.34;;;5.68;60.86
41040;BME280;48586;50.122;18.972;2023-11-21T11:54:35;98018.78;;;5.72;60.67
41040;BME280;48586;50.122;18.972;2023-11-21T11:57:43;98029.06;;;5.77;60.19
41040;BME280;48586;50.122;18.972;2023-11-21T12:00:50;98032.84;;;5.84;60.14
41040;BME280;48586;50.122;18.972;2023-11-21T12:04:24;98033.69;;;5.84;59.68
41040;BME280;48586;50.122;18.972;2023-11-21T12:07:42;98037.59;;;5.80;59.59
41040;BME280;48586;50.122;18.972;2023-11-21T12:10:48;98032.84;;;5.84;60.04
41040;BME280;48586;50.122;18.972;2023-11-21T12:13:57;98024.56;;;5.77;60.50
41040;BME280;48586;50.122;18.972;2023-11-21T12:17:03;98030.19;;;5.84;59.39
41040;BME280;48586;50.122;18.972;2023-11-21T12:20:10;98031.31;;;5.81;60.46
41040;BME280;48586;50.122;18.972;2023-11-21T12:23:21;98031.00;;;5.75;60.63
41040;BME280;48586;50.122;18.972;2023-11-21T12:26:27;98028.16;;;5.66;60.98
41040;BME280;48586;50.122;18.972;2023-11-21T12:29:32;98033.38;;;5.57;60.78
41040;BME280;48586;50.122;18.972;2023-11-21T12:32:41;98042.69;;;5.51;61.56
41040;BME280;48586;50.122;18.972;2023-11-21T12:35:47;98041.63;;;5.54;61.88
41040;BME280;48586;50.122;18.972;2023-11-21T12:38:58;98042.69;;;5.51;62.19
41040;BME280;48586;50.122;18.972;2023-11-21T12:42:05;98040.19;;;5.50;62.24
41040;BME280;48586;50.122;18.972;2023-11-21T12:45:20;98040.31;;;5.48;62.14
41040;BME280;48586;50.122;18.972;2023-11-21T12:48:29;98043.50;;;5.42;62.28
41040;BME280;48586;50.122;18.972;2023-11-21T12:51:37;98043.28;;;5.34;62.99
41040;BME280;48586;50.122;18.972;2023-11-21T12:54:46;98040.63;;;5.34;63.36
41040;BME280;48586;50.122;18.972;2023-11-21T12:57:54;98046.16;;;5.31;63.06
41040;BME280;48586;50.122;18.972;2023-11-21T13:01:00;98044.50;;;5.30;63.58
41040;BME280;48586;50.122;18.972;2023-11-21T13:04:08;98043.41;;;5.32;63.99
41040;BME280;48586;50.122;18.972;2023-11-21T13:07:15;98053.50;;;5.38;63.74
41040;BME280;48586;50.122;18.972;2023-11-21T13:10:27;98045.94;;;5.34;63.81
41040;BME280;48586;50.122;18.972;2023-11-21T13:13:33;98055.84;;;5.32;63.77
41040;BME280;48586;50.122;18.972;2023-11-21T13:16:40;98051.13;;;5.35;64.42
41040;BME280;48586;50.122;18.972;2023-11-21T13:19:49;98054.97;;;5.31;63.02
41040;BME280;48586;50.122;18.972;2023-11-21T13:22:57;98054.53;;;5.26;63.37
41040;BME280;48586;50.122;18.972;2023-11-21T13:26:07;98060.81;;;5.25;63.33
41040;BME280;48586;50.122;18.972;2023-11-21T13:29:14;98062.75;;;5.23;63.78
41040;BME280;48586;50.122;18.972;2023-11-21T13:32:19;98056.22;;;5.27;63.92
41040;BME280;48586;50.122;18.972;2023-11-21T13:35:26;98063.34;;;5.27;63.32
41040;BME280;48586;50.122;18.972;2023-11-21T13:38:39;98062.88;;;5.22;63.22
41040;BME280;48586;50.122;18.972;2023-11-21T13:41:51;98062.63;;;5.13;62.71
41040;BME280;48586;50.122;18.972;2023-11-21T13:44:59;98067.22;;;5.11;63.81
41040;BME280;48586;50.122;18.972;2023-11-21T13:48:05;98070.25;;;5.07;63.42
41040;BME280;48586;50.122;18.972;2023-11-21T13:51:11;98072.44;;;5.02;63.78
41040;BME280;48586;50.122;18.972;2023-11-21T13:54:19;98070.16;;;4.97;63.98
41040;BME280;48586;50.122;18.972;2023-11-21T13:57:28;98068.72;;;4.93;64.21
41040;BME280;48586;50.122;18.972;2023-11-21T14:00:36;98068.84;;;4.92;64.12
41040;BME280;48586;50.122;18.972;2023-11-21T14:03:46;98073.31;;;4.91;64.19
41040;BME280;48586;50.122;18.972;2023-11-21T14:07:00;98066.53;;;4.87;64.02
41040;BME280;48586;50.122;18.972;2023-11-21T14:10:21;98071.00;;;4.86;64.48
41040;BME280;48586;50.122;18.972;2023-11-21T14:13:31;98065.56;;;4.88;64.36
41040;BME280;48586;50.122;18.972;2023-11-21T14:16:37;98069.69;;;4.92;64.60
41040;BME280;48586;50.122;18.972;2023-11-21T14:19:44;98074.03;;;4.93;64.41
41040;BME280;48586;50.122;18.972;2023-11-21T14:22:51;98077.25;;;4.97;64.76
41040;BME280;48586;50.122;18.972;2023-11-21T14:25:57;98080.53;;;5.00;64.86
41040;BME280;48586;50.122;18.972;2023-11-21T14:32:41;98086.78;;;5.10;64.38
41040;BME280;48586;50.122;18.972;2023-11-21T14:35:46;98082.66;;;5.06;64.24
41040;BME280;48586;50.122;18.972;2023-11-21T14:38:52;98083.78;;;5.04;64.21
41040;BME280;48586;50.122;18.972;2023-11-21T14:41:58;98088.22;;;5.03;64.80
41040;BME280;48586;50.122;18.972;2023-11-21T14:45:06;98088.97;;;4.94;64.48
41040;BME280;48586;50.122;18.972;2023-11-21T14:48:17;98095.00;;;4.85;64.67
41040;BME280;48586;50.122;18.972;2023-11-21T14:51:40;98098.91;;;4.81;65.21
41040;BME280;48586;50.122;18.972;2023-11-21T14:55:01;98095.03;;;4.74;65.97
41040;BME280;48586;50.122;18.972;2023-11-21T14:58:23;98097.44;;;4.66;66.61
41040;BME280;48586;50.122;18.972;2023-11-21T15:01:31;98099.25;;;4.65;66.83
41040;BME280;48586;50.122;18.972;2023-11-21T15:04:50;98098.16;;;4.56;67.12
41040;BME280;48586;50.122;18.972;2023-11-21T15:08:03;98107.47;;;4.51;67.79
41040;BME280;48586;50.122;18.972;2023-11-21T15:11:23;98103.00;;;4.51;67.99
41040;BME280;48586;50.122;18.972;2023-11-21T15:14:32;98103.00;;;4.51;67.92
41040;BME280;48586;50.122;18.972;2023-11-21T15:17:40;98112.41;;;4.55;68.25
41040;BME280;48586;50.122;18.972;2023-11-21T15:20:47;98109.66;;;4.57;68.45
41040;BME280;48586;50.122;18.972;2023-11-21T15:23:53;98113.16;;;4.57;68.80
41040;BME280;48586;50.122;18.972;2023-11-21T15:26:58;98120.34;;;4.55;68.58
41040;BME280;48586;50.122;18.972;2023-11-21T15:30:08;98119.50;;;4.55;68.45
41040;BME280;48586;50.122;18.972;2023-11-21T15:33:13;98116.97;;;4.53;68.53
41040;BME280;48586;50.122;18.972;2023-11-21T15:36:25;98121.09;;;4.57;68.57
41040;BME280;48586;50.122;18.972;2023-11-21T15:39:31;98119.16;;;4.60;68.66
41040;BME280;48586;50.122;18.972;2023-11-21T15:42:37;98120.97;;;4.59;68.65
41040;BME280;48586;50.122;18.972;2023-11-21T15:45:43;98119.28;;;4.58;68.64
41040;BME280;48586;50.122;18.972;2023-11-21T15:48:50;98122.03;;;4.56;68.66
41040;BME280;48586;50.122;18.972;2023-11-21T15:52:00;98124.94;;;4.53;68.91
41040;BME280;48586;50.122;18.972;2023-11-21T15:55:07;98132.63;;;4.56;68.80
41040;BME280;48586;50.122;18.972;2023-11-21T15:58:12;98133.97;;;4.62;69.26
41040;BME280;48586;50.122;18.972;2023-11-21T16:01:17;98135.31;;;4.68;68.52
41040;BME280;48586;50.122;18.972;2023-11-21T16:04:23;98146.78;;;4.68;68.68
41040;BME280;48586;50.122;18.972;2023-11-21T16:07:33;98146.88;;;4.67;68.90
41040;BME280;48586;50.122;18.972;2023-11-21T16:10:42;98144.97;;;4.69;68.54
41040;BME280;48586;50.122;18.972;2023-11-21T16:13:49;98149.50;;;4.78;68.68
41040;BME280;48586;50.122;18.972;2023-11-21T16:16:55;98145.41;;;4.85;68.08
41040;BME280;48586;50.122;18.972;2023-11-21T16:20:01;98158.44;;;4.88;68.13
41040;BME280;48586;50.122;18.972;2023-11-21T16:23:13;98156.97;;;4.95;68.22
41040;BME280;48586;50.122;18.972;2023-11-21T16:26:23;98159.28;;;5.00;67.76
41040;BME280;48586;50.122;18.972;2023-11-21T16:29:29;98160.34;;;5.08;67.37
41040;BME280;48586;50.122;18.972;2023-11-21T16:32:36;98167.22;;;5.11;67.16
41040;BME280;48586;50.122;18.972;2023-11-21T16:35:42;98168.78;;;5.13;67.47
41040;BME280;48586;50.122;18.972;2023-11-21T16:38:52;98168.28;;;5.20;67.37
41040;BME280;48586;50.122;18.972;2023-11-21T16:41:59;98169.50;;;5.27;67.42
41040;BME280;48586;50.122;18.972;2023-11-21T16:45:07;98178.44;;;5.37;67.03